createdAt,value
2023-01-18T08:20:02.079Z,95621.42
2023-01-18T08:23:04.031Z,95644.05
2023-01-18T08:26:06.597Z,95648.25
2023-01-18T08:29:07.990Z,95670.42
2023-01-18T08:32:10.433Z,95699.34
2023-01-18T08:35:11.910Z,95710.91
2023-01-18T08:38:15.336Z,95716.83
2023-01-18T08:41:20.725Z,95730.06
2023-01-18T08:44:22.107Z,95729.27
2023-01-18T08:47:23.490Z,95730.96
2023-01-18T08:50:24.988Z,95741.04
2023-01-18T08:53:26.745Z,95743.66
2023-01-18T08:56:28.576Z,95749.37
2023-01-18T08:59:30.039Z,95739.84
2023-01-18T09:02:32.033Z,95740.88
2023-01-18T09:05:35.410Z,95748.11
2023-01-18T09:08:36.787Z,95756.14
2023-01-18T09:11:38.088Z,95769.16
2023-01-18T09:14:39.515Z,95784.06
2023-01-18T09:17:40.871Z,95790.62
2023-01-18T09:20:42.927Z,95796.07
2023-01-18T09:23:44.980Z,95789.65
2023-01-18T09:26:50.323Z,95799.04
2023-01-18T09:29:51.736Z,95808.74
2023-01-18T09:32:53.589Z,95813.55
2023-01-18T09:35:56.046Z,95822.61
2023-01-18T09:38:57.671Z,95835.89
2023-01-18T09:42:01.999Z,95833.44
2023-01-18T09:45:03.703Z,95833.77
2023-01-18T09:48:09.919Z,95839.95
2023-01-18T09:51:51.951Z,95846.52
2023-01-18T09:55:08.775Z,95846.61
2023-01-18T09:58:22.418Z,95850.23
2023-01-18T10:01:29.289Z,95853.41
2023-01-18T10:04:39.064Z,95851.34
2023-01-18T10:08:01.718Z,95861.90
2023-01-18T10:11:35.880Z,95869.45
2023-01-18T10:14:40.018Z,95864.77
2023-01-18T10:17:42.314Z,95870.80
2023-01-18T10:21:04.175Z,95877.86
2023-01-18T10:24:20.987Z,95887.55
2023-01-18T10:27:35.307Z,95896.48
2023-01-18T10:30:39.858Z,95905.89
2023-01-18T10:33:43.801Z,95928.23
2023-01-18T10:36:49.009Z,95941.25
2023-01-18T10:39:51.778Z,95955.09
2023-01-18T10:42:57.417Z,95974.58
2023-01-18T10:45:58.968Z,95964.77
2023-01-18T10:49:02.045Z,95968.52
2023-01-18T10:52:31.070Z,95988.67
2023-01-18T10:55:33.059Z,96000.71
2023-01-18T10:58:37.354Z,96001.65
2023-01-18T11:01:54.040Z,96000.16
2023-01-18T11:05:00.923Z,96005.24
2023-01-18T11:08:30.755Z,96003.06
2023-01-18T11:11:51.186Z,96009.36
2023-01-18T11:14:52.589Z,96016.43
2023-01-18T11:17:57.243Z,96025.78
2023-01-18T11:20:59.113Z,96032.00
2023-01-18T11:24:16.752Z,96039.34
2023-01-18T11:27:23.606Z,96043.13
2023-01-18T11:30:26.597Z,96048.14
2023-01-18T11:33:30.285Z,96053.17
2023-01-18T11:36:40.689Z,96059.44
2023-01-18T11:39:43.661Z,96076.33
2023-01-18T11:42:49.550Z,96084.24
2023-01-18T11:46:05.197Z,96090.95
2023-01-18T11:49:11.722Z,96090.21
2023-01-18T11:52:33.894Z,96092.43
2023-01-18T11:55:46.906Z,96099.16
2023-01-18T11:58:48.958Z,96100.88
2023-01-18T12:02:30.341Z,96100.44
2023-01-18T12:05:45.694Z,96115.87
2023-01-18T12:09:03.126Z,96124.02
2023-01-18T12:12:21.863Z,96140.39
2023-01-18T12:15:41.881Z,96149.59
2023-01-18T12:18:52.400Z,96149.77
2023-01-18T12:22:15.732Z,96160.88
2023-01-18T12:25:34.390Z,96175.19
2023-01-18T12:28:57.983Z,96188.39
2023-01-18T12:32:18.427Z,96201.50
2023-01-18T12:35:57.723Z,96202.77
2023-01-18T12:39:08.100Z,96212.65
2023-01-18T12:42:22.643Z,96219.15
2023-01-18T12:45:42.005Z,96221.51
2023-01-18T12:48:56.100Z,96246.39
2023-01-18T12:52:17.631Z,96259.80
2023-01-18T12:55:24.981Z,96267.50
2023-01-18T12:58:26.808Z,96276.31
2023-01-18T13:01:33.057Z,96285.82
2023-01-18T13:04:42.135Z,96296.55
2023-01-18T13:07:51.510Z,96299.88
2023-01-18T13:11:00.961Z,96311.51
2023-01-18T13:14:14.003Z,96330.00
2023-01-18T13:17:41.088Z,96335.96
2023-01-18T13:21:04.254Z,96339.84
2023-01-18T13:24:28.889Z,96353.14
2023-01-18T13:27:30.741Z,96367.47
2023-01-18T13:30:47.546Z,96381.27
2023-01-18T13:33:55.679Z,96376.05
2023-01-18T13:37:13.411Z,96381.29
2023-01-18T13:40:30.645Z,96387.48
2023-01-18T13:43:35.059Z,96396.77
2023-01-18T13:46:38.531Z,96413.21
2023-01-18T13:49:46.000Z,96424.35
2023-01-18T13:53:12.886Z,96432.39
2023-01-18T13:56:22.670Z,96432.69
2023-01-18T13:59:26.954Z,96426.86
2023-01-18T14:02:41.226Z,96438.80
2023-01-18T14:05:45.914Z,96440.04
2023-01-18T14:08:51.894Z,96443.45
2023-01-18T14:11:56.375Z,96459.73
2023-01-18T14:15:00.417Z,96467.99
2023-01-18T14:18:02.315Z,96475.88
2023-01-18T14:21:41.370Z,96477.44
2023-01-18T14:24:57.824Z,96476.63
2023-01-18T14:28:10.312Z,96482.66
2023-01-18T14:31:17.805Z,96492.36
2023-01-18T14:34:28.590Z,96502.15
2023-01-18T14:37:33.856Z,96496.46
2023-01-18T14:40:36.621Z,96484.40
2023-01-18T14:43:44.204Z,96487.33
2023-01-18T14:46:57.348Z,96494.06
2023-01-18T14:50:03.201Z,96491.48
2023-01-18T14:53:08.883Z,96495.02
2023-01-18T14:56:13.309Z,96497.02
2023-01-18T14:59:22.908Z,96503.86
2023-01-18T15:02:28.728Z,96517.38
2023-01-18T15:05:30.209Z,96526.15
2023-01-18T15:08:33.905Z,96531.49
2023-01-18T15:11:37.857Z,96528.16
2023-01-18T15:14:46.656Z,96533.52
2023-01-18T15:17:49.609Z,96542.92
2023-01-18T15:21:03.853Z,96545.39
2023-01-18T15:24:09.490Z,96554.95
2023-01-18T15:27:16.839Z,96563.84
2023-01-18T15:30:23.127Z,96572.88
2023-01-18T15:33:26.671Z,96570.34
2023-01-18T15:36:28.391Z,96563.75
2023-01-18T15:39:31.818Z,96568.71
2023-01-18T15:42:46.489Z,96565.55
2023-01-18T15:45:51.493Z,96566.55
2023-01-18T15:48:57.059Z,96566.70
2023-01-18T15:51:58.528Z,96570.80
2023-01-18T15:55:02.959Z,96582.91
2023-01-18T15:58:06.843Z,96599.91
2023-01-18T16:01:17.007Z,96606.21
2023-01-18T16:04:22.037Z,96599.25
2023-01-18T16:07:35.374Z,96601.11
2023-01-18T16:10:47.634Z,96602.31
2023-01-18T16:13:56.701Z,96615.13
2023-01-18T16:17:10.284Z,96631.86
2023-01-18T16:20:16.012Z,96643.11
2023-01-18T16:23:19.375Z,96652.10
2023-01-18T16:26:30.301Z,96648.20
2023-01-18T16:29:43.985Z,96646.90
2023-01-18T16:32:46.987Z,96639.95
2023-01-18T16:35:48.709Z,96647.79
2023-01-18T16:38:50.085Z,96645.77
2023-01-18T16:41:55.879Z,96658.56
2023-01-18T16:44:57.459Z,96668.44
2023-01-18T16:47:59.469Z,96673.80
2023-01-18T16:51:01.242Z,96676.48
2023-01-18T16:54:02.728Z,96685.70
2023-01-18T16:57:04.822Z,96693.83
2023-01-18T17:00:49.831Z,96695.73
2023-01-18T17:03:51.787Z,96696.65
2023-01-18T17:06:53.187Z,96700.27
2023-01-18T17:09:54.509Z,96708.80
2023-01-18T17:12:57.048Z,96710.21
2023-01-18T17:15:58.703Z,96703.89
2023-01-18T17:19:00.158Z,96699.48
2023-01-18T17:22:01.580Z,96706.52
2023-01-18T17:25:03.147Z,96716.13
2023-01-18T17:28:04.742Z,96719.35
2023-01-18T17:31:06.234Z,96725.41
2023-01-18T17:34:10.718Z,96732.92
2023-01-18T17:37:12.642Z,96730.89
2023-01-18T17:40:23.539Z,96733.22
2023-01-18T17:43:34.035Z,96732.45
2023-01-18T17:46:36.508Z,96726.03
2023-01-18T17:49:38.038Z,96727.86
2023-01-18T17:52:40.334Z,96712.76
2023-01-18T17:55:41.663Z,96720.11
2023-01-18T17:58:47.945Z,96735.60
2023-01-18T18:01:49.492Z,96745.08
2023-01-18T18:04:51.463Z,96740.30
2023-01-18T18:07:52.848Z,96726.85
2023-01-18T18:10:54.846Z,96725.84
2023-01-18T18:13:58.221Z,96740.16
2023-01-18T18:17:01.409Z,96745.66
2023-01-18T18:20:03.698Z,96754.27
2023-01-18T18:23:05.133Z,96751.45
2023-01-18T18:26:06.772Z,96750.98
2023-01-18T18:29:09.216Z,96761.64
2023-01-18T18:32:11.219Z,96768.96
2023-01-18T18:35:24.966Z,96778.95
2023-01-18T18:38:27.181Z,96788.52
2023-01-18T18:41:28.608Z,96781.31
2023-01-18T18:44:29.992Z,96774.10
2023-01-18T18:47:31.806Z,96783.83
2023-01-18T18:50:33.728Z,96796.61
2023-01-18T18:53:39.147Z,96801.88
2023-01-18T18:56:42.101Z,96798.45
2023-01-18T18:59:43.524Z,96790.83
2023-01-18T19:02:45.007Z,96792.41
2023-01-18T19:05:46.448Z,96797.42
2023-01-18T19:08:47.937Z,96797.16
2023-01-18T19:11:55.060Z,96793.19
2023-01-18T19:14:57.837Z,96811.02
2023-01-18T19:17:59.395Z,96817.96
2023-01-18T19:21:00.875Z,96820.95
2023-01-18T19:24:03.106Z,96821.23
2023-01-18T19:27:05.364Z,96818.15
2023-01-18T19:30:12.219Z,96817.77
2023-01-18T19:33:14.819Z,96826.73
2023-01-18T19:36:16.272Z,96824.48
2023-01-18T19:39:22.673Z,96823.58
2023-01-18T19:42:24.379Z,96821.98
2023-01-18T19:45:28.703Z,96822.91
2023-01-18T19:48:32.242Z,96831.47
2023-01-18T19:51:36.625Z,96834.08
2023-01-18T19:54:38.006Z,96824.19
2023-01-18T19:57:39.468Z,96822.05
2023-01-18T20:00:41.142Z,96823.20
2023-01-18T20:03:43.308Z,96829.34
2023-01-18T20:06:45.533Z,96836.70
2023-01-18T20:09:46.954Z,96841.49
2023-01-18T20:12:49.276Z,96838.97
2023-01-18T20:15:53.417Z,96834.16
2023-01-18T20:18:55.112Z,96834.95
2023-01-18T20:21:56.526Z,96836.54
2023-01-18T20:24:58.387Z,96838.89
2023-01-18T20:28:00.533Z,96844.73
2023-01-18T20:31:04.896Z,96857.46
2023-01-18T20:34:07.654Z,96859.88
2023-01-18T20:37:10.796Z,96862.46
2023-01-18T20:40:12.337Z,96858.66
2023-01-18T20:43:13.760Z,96853.89
2023-01-18T20:46:15.257Z,96849.61
2023-01-18T20:49:20.552Z,96841.44
2023-01-18T20:52:23.826Z,96838.77
2023-01-18T20:55:25.447Z,96837.89
2023-01-18T20:58:26.872Z,96831.95
2023-01-18T21:01:32.121Z,96831.55
2023-01-18T21:04:33.833Z,96840.27
2023-01-18T21:07:35.543Z,96838.89
2023-01-18T21:10:41.300Z,96843.21
2023-01-18T21:13:43.258Z,96846.02
2023-01-18T21:16:44.795Z,96851.42
2023-01-18T21:19:46.841Z,96861.49
2023-01-18T21:22:48.226Z,96869.88
2023-01-18T21:25:50.735Z,96872.23
2023-01-18T21:28:52.334Z,96873.91
2023-01-18T21:31:53.693Z,96877.98
2023-01-18T21:34:55.094Z,96887.04
2023-01-18T21:37:59.161Z,96891.38
2023-01-18T21:41:21.029Z,96888.92
2023-01-18T21:44:41.114Z,96886.76
2023-01-18T21:47:42.495Z,96885.62
2023-01-18T21:51:02.688Z,96882.04
2023-01-18T21:54:16.201Z,96877.77
2023-01-18T21:57:18.921Z,96868.23
2023-01-18T22:00:20.710Z,96861.34
2023-01-18T22:03:22.124Z,96849.93
2023-01-18T22:06:23.439Z,96848.55
2023-01-18T22:09:26.825Z,96841.76
2023-01-18T22:12:28.215Z,96841.02
2023-01-18T22:15:30.033Z,96844.35
2023-01-18T22:18:31.382Z,96843.05
2023-01-18T22:21:33.311Z,96839.70
2023-01-18T22:24:34.638Z,96837.22
2023-01-18T22:27:36.083Z,96846.17
2023-01-18T22:30:37.483Z,96849.41
2023-01-18T22:33:39.388Z,96856.82
2023-01-18T22:36:40.946Z,96849.77
2023-01-18T22:39:42.402Z,96847.79
2023-01-18T22:42:43.849Z,96844.43
2023-01-18T22:45:53.994Z,96839.00
2023-01-18T22:48:55.438Z,96834.64
2023-01-18T22:51:56.891Z,96828.01
2023-01-18T22:54:58.234Z,96829.13
2023-01-18T22:57:59.865Z,96838.25
2023-01-18T23:01:02.364Z,96846.31
2023-01-18T23:04:03.961Z,96856.55
2023-01-18T23:07:05.320Z,96852.56
2023-01-18T23:10:07.360Z,96847.22
2023-01-18T23:13:08.746Z,96842.11
2023-01-18T23:16:32.341Z,96840.01
2023-01-18T23:19:33.806Z,96837.48
2023-01-18T23:22:35.689Z,96835.83
2023-01-18T23:25:37.087Z,96837.86
2023-01-18T23:28:41.146Z,96838.23
2023-01-18T23:31:42.994Z,96829.23
2023-01-18T23:34:47.096Z,96823.44
2023-01-18T23:37:48.617Z,96819.00
2023-01-18T23:41:08.450Z,96822.02
2023-01-18T23:44:28.415Z,96828.44
2023-01-18T23:47:48.792Z,96844.65
2023-01-18T23:51:08.854Z,96847.33
2023-01-18T23:54:17.240Z,96844.69
2023-01-18T23:57:18.691Z,96836.98
